Time;durP1;ratioP1;P1;durP2;ratioP2;P2;SDS_P1;SDS_P2;PMS_P1;PMS_P2;Temp;Humidity;BMP_temperature;BMP_pressure;BME280_temperature;BME280_humidity;BME280_pressure;Samples;Min_cycle;Max_cycle;Signal;HPM_P1;HPM_P2
2021/07/10 00:00:35;;;;;;;9.80;7.07;;;;;;;17.59;70.41;100320.31;4995907;28;20034;-66
2021/07/10 00:03:03;;;;;;;8.45;6.65;;;;;;;17.59;70.43;100317.69;4994055;28;20046;-68
2021/07/10 00:05:35;;;;;;;10.75;7.00;;;;;;;17.58;70.52;100305.47;4995899;28;20042;-68
2021/07/10 00:08:03;;;;;;;7.60;6.53;;;;;;;17.59;70.38;100307.22;4995411;28;20405;-68
2021/07/10 00:10:30;;;;;;;8.40;6.20;;;;;;;17.59;70.61;100298.50;4995873;28;20034;-68
2021/07/10 00:12:59;;;;;;;7.65;6.70;;;;;;;17.58;70.60;100308.09;4995651;28;20030;-68
2021/07/10 00:15:25;;;;;;;10.35;7.68;;;;;;;17.57;70.45;100301.13;4995246;28;20101;-68
2021/07/10 00:17:54;;;;;;;9.00;7.57;;;;;;;17.58;70.61;100297.63;4995736;28;20034;-68
2021/07/10 00:20:23;;;;;;;11.02;7.78;;;;;;;17.58;70.47;100296.75;4995764;28;20482;-68
2021/07/10 00:22:51;;;;;;;8.38;7.30;;;;;;;17.57;70.67;100298.50;4994483;28;20053;-68
2021/07/10 00:25:19;;;;;;;11.02;7.10;;;;;;;17.56;70.70;100296.75;4993919;28;20042;-68
2021/07/10 00:27:49;;;;;;;9.52;7.28;;;;;;;17.56;70.68;100301.16;4995182;28;20062;-68
2021/07/10 00:30:22;;;;;;;11.50;7.10;;;;;;;17.56;70.59;100290.66;4996093;28;20129;-68
2021/07/10 00:32:49;;;;;;;12.68;7.72;;;;;;;17.56;70.44;100299.38;4995823;28;20088;-68
2021/07/10 00:35:18;;;;;;;13.95;7.30;;;;;;;17.56;70.69;100295.91;4995401;28;20050;-68
2021/07/10 00:37:47;;;;;;;12.50;7.05;;;;;;;17.55;70.57;100297.63;4995163;28;20034;-68
2021/07/10 00:40:14;;;;;;;9.32;7.13;;;;;;;17.57;70.73;100288.00;4994988;28;20405;-67
2021/07/10 00:42:41;;;;;;;10.15;7.43;;;;;;;17.55;70.57;100291.53;4995533;28;20498;-68
2021/07/10 00:45:11;;;;;;;14.65;8.65;;;;;;;17.55;70.76;100287.16;4993695;28;20062;-68
2021/07/10 00:47:40;;;;;;;10.65;7.38;;;;;;;17.56;70.62;100288.03;4995159;28;20060;-68
2021/07/10 00:50:13;;;;;;;14.48;7.63;;;;;;;17.55;70.70;100283.69;4993871;28;20504;-68
2021/07/10 00:52:39;;;;;;;10.02;7.82;;;;;;;17.54;70.63;100280.19;4993818;28;20045;-68
2021/07/10 00:55:06;;;;;;;11.30;7.93;;;;;;;17.54;70.59;100276.69;4994742;28;20046;-67
2021/07/10 00:57:37;;;;;;;11.85;7.13;;;;;;;17.53;70.56;100272.34;4994960;28;20045;-68
2021/07/10 01:00:09;;;;;;;10.90;7.20;;;;;;;17.52;70.68;100270.59;4993850;28;20038;-68
2021/07/10 01:02:37;;;;;;;12.05;8.27;;;;;;;17.51;70.69;100269.75;4993234;28;20072;-68
2021/07/10 01:05:10;;;;;;;17.27;8.20;;;;;;;17.50;70.62;100261.00;4995009;28;20112;-67
2021/07/10 01:07:41;;;;;;;13.82;8.05;;;;;;;17.50;70.70;100265.38;4994746;28;20038;-67
2021/07/10 01:10:12;;;;;;;12.65;7.53;;;;;;;17.49;70.64;100261.03;4994477;28;20504;-68
2021/07/10 01:12:41;;;;;;;11.38;8.05;;;;;;;17.49;70.74;100261.03;4994319;28;20401;-68
2021/07/10 01:15:12;;;;;;;12.95;8.05;;;;;;;17.49;70.88;100255.78;4992757;28;20472;-68
2021/07/10 01:17:37;;;;;;;13.02;7.80;;;;;;;17.49;70.51;100250.53;4993385;28;20044;-68
2021/07/10 01:20:09;;;;;;;15.85;7.95;;;;;;;17.49;70.71;100245.31;4994554;28;20038;-67
2021/07/10 01:22:41;;;;;;;11.35;7.47;;;;;;;17.48;70.68;100236.56;4994712;28;20060;-68
2021/07/10 01:25:10;;;;;;;10.43;8.15;;;;;;;17.49;70.72;100240.06;4977277;28;20405;-68
2021/07/10 01:27:35;;;;;;;11.30;7.50;;;;;;;17.49;70.95;100240.06;4994646;28;20588;-68
2021/07/10 01:30:09;;;;;;;10.10;7.45;;;;;;;17.49;70.91;100240.06;4993995;28;20034;-68
2021/07/10 01:32:36;;;;;;;12.40;8.40;;;;;;;17.49;71.00;100240.91;4976967;28;20133;-67
2021/07/10 01:35:06;;;;;;;14.95;8.70;;;;;;;17.49;70.73;100240.91;4994357;28;20034;-68
2021/07/10 01:37:32;;;;;;;15.35;7.50;;;;;;;17.49;70.74;100237.44;4994745;28;20060;-68
2021/07/10 01:40:00;;;;;;;14.85;9.20;;;;;;;17.48;70.72;100228.69;4994353;28;20041;-68
2021/07/10 01:42:26;;;;;;;14.63;8.70;;;;;;;17.48;70.93;100225.22;4994299;28;20500;-68
2021/07/10 01:44:57;;;;;;;15.30;8.70;;;;;;;17.48;70.86;100228.69;4993099;28;20035;-68
2021/07/10 01:47:28;;;;;;;13.90;8.85;;;;;;;17.46;70.80;100227.84;4993953;28;20521;-68
2021/07/10 01:49:53;;;;;;;14.43;8.80;;;;;;;17.47;70.84;100223.50;4992981;28;20046;-68
2021/07/10 01:52:19;;;;;;;15.98;8.88;;;;;;;17.47;70.91;100218.25;4994030;28;20485;-68
2021/07/10 01:54:45;;;;;;;15.38;8.05;;;;;;;17.46;71.03;100214.75;4994391;28;20505;-68
2021/07/10 01:57:17;;;;;;;13.18;8.95;;;;;;;17.45;70.81;100217.41;4993029;28;20035;-68
2021/07/10 01:59:46;;;;;;;15.15;9.25;;;;;;;17.45;70.89;100206.91;4994059;28;20089;-67
2021/07/10 02:02:18;;;;;;;18.52;9.30;;;;;;;17.44;70.99;100206.03;4993227;28;20050;-68
2021/07/10 02:04:49;;;;;;;15.00;8.95;;;;;;;17.44;70.96;100207.78;4994379;28;20088;-68
2021/07/10 02:07:15;;;;;;;14.32;9.13;;;;;;;17.43;70.95;100206.94;4993957;28;20042;-68
2021/07/10 02:09:45;;;;;;;17.33;9.05;;;;;;;17.42;71.08;100202.59;4993851;28;20371;-68
2021/07/10 02:12:14;;;;;;;13.82;8.30;;;;;;;17.43;70.48;100203.44;4992862;28;20038;-68
2021/07/10 02:14:40;;;;;;;19.55;9.15;;;;;;;17.43;71.05;100203.44;4993934;28;20034;-68
2021/07/10 02:17:06;;;;;;;16.42;8.82;;;;;;;17.42;71.08;100201.69;4994144;28;20045;-68
2021/07/10 02:19:35;;;;;;;13.25;9.25;;;;;;;17.41;71.01;100190.38;4994193;28;20045;-68
2021/07/10 02:22:02;;;;;;;12.82;9.00;;;;;;;17.43;70.83;100199.09;4993771;28;20125;-68
2021/07/10 02:24:32;;;;;;;14.10;9.57;;;;;;;17.43;70.74;100192.97;4993644;28;20038;-68
2021/07/10 02:27:01;;;;;;;18.65;9.07;;;;;;;17.42;70.74;100188.59;4996071;28;20050;-68
2021/07/10 02:29:32;;;;;;;12.18;8.90;;;;;;;17.42;70.83;100185.97;4997697;28;20061;-68
2021/07/10 02:32:00;;;;;;;12.90;8.55;;;;;;;17.42;70.95;100193.84;4998034;28;20048;-68
2021/07/10 02:34:26;;;;;;;14.23;8.90;;;;;;;17.41;71.11;100187.75;4997557;28;20489;-68
2021/07/10 02:36:56;;;;;;;16.48;9.82;;;;;;;17.40;71.09;100183.38;4997167;28;20045;-68
2021/07/10 02:39:25;;;;;;;11.70;8.60;;;;;;;17.41;71.06;100181.63;4996442;28;20176;-67
2021/07/10 02:41:53;;;;;;;12.30;8.82;;;;;;;17.40;70.94;100175.53;4996283;28;20116;-68
2021/07/10 02:44:27;;;;;;;15.73;9.48;;;;;;;17.40;71.06;100178.16;4996598;28;20376;-68
2021/07/10 02:46:55;;;;;;;17.02;9.88;;;;;;;17.40;71.09;100178.16;4997214;28;20048;-68
2021/07/10 02:49:24;;;;;;;17.58;9.77;;;;;;;17.40;71.00;100166.78;4997133;28;20041;-68
2021/07/10 02:51:55;;;;;;;15.40;9.50;;;;;;;17.40;71.11;100165.06;4997162;28;20034;-68
2021/07/10 02:54:23;;;;;;;13.65;8.82;;;;;;;17.39;70.92;100160.69;4997792;28;20043;-68
2021/07/10 02:56:54;;;;;;;13.48;9.70;;;;;;;17.41;70.99;100160.66;4997500;28;20041;-68
2021/07/10 02:59:22;;;;;;;12.85;9.05;;;;;;;17.41;70.79;100152.81;4997418;28;20054;-68
2021/07/10 03:01:50;;;;;;;20.65;9.70;;;;;;;17.40;71.13;100161.53;4996551;28;20129;-68
2021/07/10 03:04:18;;;;;;;15.60;9.55;;;;;;;17.39;71.41;100150.22;4996947;28;20042;-68
2021/07/10 03:06:49;;;;;;;15.98;9.57;;;;;;;17.39;71.09;100155.44;4996887;28;20045;-68
2021/07/10 03:09:15;;;;;;;15.15;9.02;;;;;;;17.39;71.11;100149.31;4997014;28;20049;-68
2021/07/10 03:11:48;;;;;;;14.68;10.02;;;;;;;17.38;71.21;100148.47;4996922;28;20042;-68
2021/07/10 03:14:19;;;;;;;14.85;9.48;;;;;;;17.39;70.91;100149.31;4996584;28;20090;-68
2021/07/10 03:16:48;;;;;;;13.98;9.57;;;;;;;17.38;71.08;100147.59;4979240;28;20039;-68
2021/07/10 03:19:18;;;;;;;13.55;9.00;;;;;;;17.36;70.91;100145.00;4996777;28;20042;-68
2021/07/10 03:21:47;;;;;;;18.20;10.23;;;;;;;17.37;71.25;100132.75;4995731;28;20440;-68
2021/07/10 03:24:13;;;;;;;13.15;9.70;;;;;;;17.35;71.32;100130.16;4996923;28;20402;-68
2021/07/10 03:26:44;;;;;;;18.63;9.65;;;;;;;17.34;71.25;100125.81;4996666;28;20169;-68
2021/07/10 03:29:14;;;;;;;22.55;10.38;;;;;;;17.34;71.51;100134.56;4996910;28;20073;-68
2021/07/10 03:31:42;;;;;;;17.30;9.93;;;;;;;17.33;71.24;100132.81;4996552;28;20061;-68
2021/07/10 03:34:11;;;;;;;15.40;9.13;;;;;;;17.32;71.18;100132.81;4995424;28;20030;-68
2021/07/10 03:36:39;;;;;;;17.55;9.40;;;;;;;17.31;71.23;100124.09;4996428;28;20046;-68
2021/07/10 03:39:04;;;;;;;15.50;10.18;;;;;;;17.30;71.21;100132.84;4994444;28;20578;-68
2021/07/10 03:41:32;;;;;;;17.00;8.93;;;;;;;17.30;71.21;100131.97;4979450;28;20044;-68
2021/07/10 03:44:01;;;;;;;20.25;9.65;;;;;;;17.29;71.59;100133.72;4995974;28;20121;-68
2021/07/10 03:46:31;;;;;;;13.80;8.75;;;;;;;17.28;71.33;100131.97;4994819;28;20038;-68
2021/07/10 03:49:00;;;;;;;12.20;8.88;;;;;;;17.26;71.33;100128.50;4996721;28;20038;-68
2021/07/10 03:51:28;;;;;;;13.35;9.57;;;;;;;17.26;71.20;100133.75;4996150;28;20061;-68
2021/07/10 03:53:54;;;;;;;17.30;9.93;;;;;;;17.27;71.15;100130.25;4995087;28;20049;-68
2021/07/10 03:56:22;;;;;;;16.50;9.48;;;;;;;17.27;71.32;100126.78;4996172;28;20038;-68
2021/07/10 03:58:48;;;;;;;17.90;9.45;;;;;;;17.27;71.35;100129.38;4995578;28;20402;-67
2021/07/10 04:01:16;;;;;;;21.45;10.20;;;;;;;17.25;71.29;100126.78;4995746;28;20042;-67
2021/07/10 04:03:41;;;;;;;18.13;10.38;;;;;;;17.25;71.36;100120.69;4996429;28;20034;-67
2021/07/10 04:06:07;;;;;;;13.05;9.00;;;;;;;17.25;71.43;100124.16;4996216;28;20041;-67
2021/07/10 04:08:38;;;;;;;16.88;10.32;;;;;;;17.24;71.43;100111.94;4995767;28;20043;-68
2021/07/10 04:11:04;;;;;;;17.13;9.30;;;;;;;17.25;71.38;100123.31;4994642;28;20072;-68
2021/07/10 04:13:30;;;;;;;14.35;9.48;;;;;;;17.26;71.58;100119.78;4995553;28;20455;-68
2021/07/10 04:15:58;;;;;;;19.85;10.68;;;;;;;17.24;71.71;100116.31;4994569;28;20035;-68
2021/07/10 04:18:23;;;;;;;16.08;10.20;;;;;;;17.25;71.43;100120.69;4995563;28;20478;-68
2021/07/10 04:20:52;;;;;;;14.68;9.25;;;;;;;17.25;71.37;100123.31;4994461;28;20157;-68
2021/07/10 04:23:23;;;;;;;14.23;10.18;;;;;;;17.25;71.51;100118.06;4995674;28;20050;-68
2021/07/10 04:25:51;;;;;;;15.50;10.05;;;;;;;17.24;71.52;100121.56;4995763;28;20038;-68
2021/07/10 04:28:17;;;;;;;16.25;9.88;;;;;;;17.24;71.53;100125.03;4995217;28;20608;-68
2021/07/10 04:30:45;;;;;;;18.92;10.25;;;;;;;17.23;71.30;100114.59;4995334;28;20121;-68
2021/07/10 04:33:16;;;;;;;18.33;9.05;;;;;;;17.24;71.51;100119.78;4995407;28;20192;-68
2021/07/10 04:35:44;;;;;;;20.40;11.05;;;;;;;17.24;71.40;100124.19;4995609;28;20038;-67
2021/07/10 04:38:10;;;;;;;15.48;10.63;;;;;;;17.24;71.70;100119.78;4993770;28;20046;-68
2021/07/10 04:40:38;;;;;;;14.20;10.27;;;;;;;17.24;71.70;100106.69;4995402;28;20042;-68
2021/07/10 04:43:11;;;;;;;11.70;8.95;;;;;;;17.25;71.53;100112.81;4995806;28;20104;-68
2021/07/10 04:45:38;;;;;;;14.23;8.88;;;;;;;17.25;71.66;100118.06;4994233;28;20030;-68
2021/07/10 04:48:09;;;;;;;17.73;10.48;;;;;;;17.24;71.49;100119.78;4994705;28;20034;-68
2021/07/10 04:50:36;;;;;;;14.55;9.35;;;;;;;17.25;71.62;100121.53;4994467;28;20043;-68
2021/07/10 04:53:04;;;;;;;16.50;10.38;;;;;;;17.25;71.62;100121.53;4994836;28;20113;-68
2021/07/10 04:55:30;;;;;;;11.48;9.38;;;;;;;17.25;71.67;100121.53;4994996;28;20030;-67
2021/07/10 04:57:58;;;;;;;16.38;10.20;;;;;;;17.26;71.70;100114.56;4994044;28;20042;-68
2021/07/10 05:00:24;;;;;;;16.67;9.70;;;;;;;17.26;71.74;100119.78;4995296;28;20441;-68
2021/07/10 05:02:50;;;;;;;18.33;10.25;;;;;;;17.27;71.82;100117.16;4994925;28;20042;-68
2021/07/10 05:05:21;;;;;;;15.02;10.57;;;;;;;17.26;71.82;100104.94;4994862;28;20121;-68
2021/07/10 05:07:49;;;;;;;14.90;10.55;;;;;;;17.28;71.69;100112.78;4993443;28;20486;-68
2021/07/10 05:10:18;;;;;;;12.65;9.57;;;;;;;17.29;71.69;100123.25;4994966;28;20137;-68
2021/07/10 05:12:46;;;;;;;14.77;10.05;;;;;;;17.30;71.87;100117.13;4993508;28;20074;-68
2021/07/10 05:15:17;;;;;;;18.08;10.30;;;;;;;17.30;72.07;100117.13;4994833;28;20042;-68
2021/07/10 05:17:43;;;;;;;14.50;11.18;;;;;;;17.30;71.90;100119.75;4993591;28;20061;-68
2021/07/10 05:20:12;;;;;;;17.45;11.50;;;;;;;17.32;72.00;100114.47;4993478;28;20038;-68
2021/07/10 05:22:39;;;;;;;15.77;10.95;;;;;;;17.32;72.13;100117.97;4993209;28;20478;-68
2021/07/10 05:25:07;;;;;;;15.25;11.30;;;;;;;17.32;71.96;100110.13;4994572;28;20038;-68
2021/07/10 05:27:37;;;;;;;14.90;11.35;;;;;;;17.34;72.14;100110.09;4994727;28;20034;-68
2021/07/10 05:30:07;;;;;;;19.83;11.20;;;;;;;17.33;72.05;100117.09;4994748;28;20034;-68
2021/07/10 05:32:32;;;;;;;16.27;11.30;;;;;;;17.33;71.98;100109.25;4992901;28;20042;-68
2021/07/10 05:35:05;;;;;;;14.73;11.25;;;;;;;17.35;72.16;100109.22;4993838;28;20049;-67
2021/07/10 05:37:31;;;;;;;16.70;11.27;;;;;;;17.35;72.10;100107.47;4994057;28;20173;-68
2021/07/10 05:40:01;;;;;;;14.23;11.27;;;;;;;17.37;72.10;100110.06;4994261;28;20501;-68
2021/07/10 05:42:27;;;;;;;17.15;10.82;;;;;;;17.37;72.19;100103.94;4994352;28;20043;-68
2021/07/10 05:44:55;;;;;;;13.80;10.68;;;;;;;17.38;72.07;100106.56;4992860;28;20498;-68
2021/07/10 05:47:21;;;;;;;14.20;10.63;;;;;;;17.39;72.23;100103.06;4992853;28;20422;-68
2021/07/10 05:49:49;;;;;;;15.75;11.88;;;;;;;17.39;72.16;100095.19;4993006;28;20042;-68
2021/07/10 05:52:17;;;;;;;16.15;12.15;;;;;;;17.40;72.33;100104.81;4994116;28;20042;-68
2021/07/10 05:54:43;;;;;;;14.00;11.43;;;;;;;17.42;72.19;100103.03;4994427;28;20034;-68
2021/07/10 05:57:08;;;;;;;15.57;11.15;;;;;;;17.41;72.32;100106.53;4993103;28;20053;-68
2021/07/10 05:59:41;;;;;;;16.58;10.88;;;;;;;17.42;72.29;100099.53;4993941;28;20038;-68
2021/07/10 06:02:11;;;;;;;14.25;11.57;;;;;;;17.43;72.38;100109.13;4993326;28;20520;-68
2021/07/10 06:04:41;;;;;;;16.75;11.77;;;;;;;17.43;72.25;100104.78;4993093;28;20034;-68
2021/07/10 06:07:10;;;;;;;15.63;10.90;;;;;;;17.44;72.52;100103.00;4994089;28;20042;-68
2021/07/10 06:09:40;;;;;;;17.02;10.57;;;;;;;17.44;72.31;100108.25;4994266;28;20073;-68
2021/07/10 06:12:10;;;;;;;14.68;10.35;;;;;;;17.44;72.41;100100.38;4994159;28;20093;-68
2021/07/10 06:14:37;;;;;;;12.27;10.27;;;;;;;17.43;72.46;100093.41;4992502;28;20413;-68
2021/07/10 06:17:04;;;;;;;17.70;11.20;;;;;;;17.44;72.44;100103.00;4992416;28;20565;-68
2021/07/10 06:19:29;;;;;;;13.68;10.55;;;;;;;17.43;72.15;100094.28;4993984;28;20401;-68
2021/07/10 06:22:00;;;;;;;15.02;11.02;;;;;;;17.44;72.46;100096.00;4992582;28;20049;-68
2021/07/10 06:24:28;;;;;;;12.65;9.70;;;;;;;17.44;72.44;100092.53;4993972;28;20404;-68
2021/07/10 06:26:56;;;;;;;13.63;10.10;;;;;;;17.44;72.46;100103.84;4976398;28;20371;-68
2021/07/10 06:29:24;;;;;;;13.02;11.07;;;;;;;17.45;72.52;100097.72;4993658;28;20041;-67
2021/07/10 06:31:51;;;;;;;14.45;10.25;;;;;;;17.46;72.43;100099.47;4994184;28;20629;-68
2021/07/10 06:34:20;;;;;;;16.65;9.93;;;;;;;17.46;72.59;100098.63;4992941;28;20524;-68
2021/07/10 06:36:47;;;;;;;12.27;10.63;;;;;;;17.46;72.54;100099.47;4992521;28;20128;-67
2021/07/10 06:39:18;;;;;;;13.30;10.10;;;;;;;17.47;72.51;100089.88;4993667;28;20046;-68
2021/07/10 06:41:44;;;;;;;10.85;9.15;;;;;;;17.47;72.44;100090.72;4993481;28;20057;-67
2021/07/10 06:44:11;;;;;;;14.55;10.18;;;;;;;17.48;72.56;100089.00;4993427;28;20501;-67
2021/07/10 06:46:42;;;;;;;14.55;10.20;;;;;;;17.48;72.53;100097.69;4993277;28;20517;-67
2021/07/10 06:49:10;;;;;;;12.18;9.63;;;;;;;17.49;72.50;100098.59;4993913;28;20494;-66
2021/07/10 06:51:40;;;;;;;15.15;9.93;;;;;;;17.49;72.39;100103.81;4993550;28;20039;-67
2021/07/10 06:54:06;;;;;;;12.80;10.57;;;;;;;17.50;72.48;100097.72;4993450;28;20053;-67
2021/07/10 06:56:31;;;;;;;11.48;10.13;;;;;;;17.50;72.49;100105.56;4993149;28;20034;-67
2021/07/10 06:58:59;;;;;;;11.70;9.52;;;;;;;17.50;72.55;100098.56;4992245;28;20453;-67
2021/07/10 07:01:27;;;;;;;10.52;9.27;;;;;;;17.50;72.53;100095.09;4993224;28;20046;-66
2021/07/10 07:03:55;;;;;;;16.60;10.00;;;;;;;17.52;72.60;100103.78;4992574;28;20030;-66
2021/07/10 07:06:21;;;;;;;13.68;9.95;;;;;;;17.52;72.54;100103.78;4993057;28;20560;-66
2021/07/10 07:08:47;;;;;;;13.40;9.40;;;;;;;17.52;72.58;100106.38;4993369;28;20042;-66
2021/07/10 07:11:12;;;;;;;12.88;9.60;;;;;;;17.52;72.61;100103.78;4993503;28;20092;-66
2021/07/10 07:13:42;;;;;;;13.40;10.13;;;;;;;17.53;72.60;100105.50;4994293;28;20528;-66
2021/07/10 07:16:07;;;;;;;13.60;8.77;;;;;;;17.53;72.52;100108.13;4996839;28;20045;-67
2021/07/10 07:18:38;;;;;;;14.65;9.30;;;;;;;17.53;72.66;100110.75;4996506;28;20062;-66
2021/07/10 07:21:04;;;;;;;14.50;8.85;;;;;;;17.54;72.36;100107.25;4979492;28;20108;-67
2021/07/10 07:23:30;;;;;;;17.33;10.55;;;;;;;17.54;72.57;100104.63;4996664;28;20077;-66
2021/07/10 07:25:58;;;;;;;11.68;9.38;;;;;;;17.54;72.50;100106.38;4995534;28;20513;-66
2021/07/10 07:28:24;;;;;;;15.27;10.00;;;;;;;17.54;72.42;100098.53;4996604;28;20026;-66
2021/07/10 07:30:49;;;;;;;11.95;9.60;;;;;;;17.55;72.51;100103.75;4996864;28;20041;-66
2021/07/10 07:33:15;;;;;;;14.60;9.80;;;;;;;17.55;72.35;100106.34;4996765;28;20042;-66
2021/07/10 07:35:40;;;;;;;12.52;9.45;;;;;;;17.55;72.46;100098.50;4995363;28;20042;-67
2021/07/10 07:38:13;;;;;;;13.77;9.50;;;;;;;17.56;72.52;100097.63;4996674;28;20038;-66
2021/07/10 07:40:42;;;;;;;14.65;10.88;;;;;;;17.57;72.49;100099.34;4995236;28;20041;-66
2021/07/10 07:43:12;;;;;;;11.02;9.48;;;;;;;17.57;72.32;100101.97;4979832;28;20077;-66
2021/07/10 07:45:40;;;;;;;19.98;10.75;;;;;;;17.58;72.28;100098.47;4996455;28;20045;-66
2021/07/10 07:48:10;;;;;;;10.50;9.40;;;;;;;17.58;72.29;100095.84;4996369;28;20092;-66
2021/07/10 07:50:36;;;;;;;14.75;10.30;;;;;;;17.60;72.32;100101.06;4996222;28;20564;-66
2021/07/10 07:53:02;;;;;;;14.73;10.65;;;;;;;17.59;72.45;100094.97;4996243;28;20038;-66
2021/07/10 07:55:33;;;;;;;13.07;10.32;;;;;;;17.61;72.65;100097.56;4996328;28;20038;-66
2021/07/10 07:57:59;;;;;;;14.55;10.52;;;;;;;17.61;72.41;100092.31;4996542;28;20069;-66
2021/07/10 08:00:26;;;;;;;11.90;9.32;;;;;;;17.61;72.14;100085.34;4995689;28;20116;-67
2021/07/10 08:02:55;;;;;;;11.70;10.02;;;;;;;17.62;72.50;100087.06;4994427;28;20173;-67
2021/07/10 08:05:23;;;;;;;10.43;9.32;;;;;;;17.64;72.27;100094.91;4996145;28;20038;-66
2021/07/10 08:07:48;;;;;;;16.85;10.45;;;;;;;17.62;72.26;100078.31;4995849;28;20042;-66
2021/07/10 08:10:17;;;;;;;11.38;9.40;;;;;;;17.64;72.14;100082.69;4995932;28;20046;-66
2021/07/10 08:12:45;;;;;;;12.95;9.80;;;;;;;17.65;72.15;100080.91;4996265;28;20045;-66
2021/07/10 08:15:14;;;;;;;15.90;9.60;;;;;;;17.65;72.32;100076.56;4994440;28;20038;-66
2021/07/10 08:17:40;;;;;;;13.88;9.75;;;;;;;17.67;72.28;100081.75;4994806;28;20065;-66
2021/07/10 08:20:06;;;;;;;12.40;9.65;;;;;;;17.67;72.47;100080.91;4978343;28;20077;-66
2021/07/10 08:22:34;;;;;;;12.77;9.40;;;;;;;17.67;72.31;100073.91;4995423;28;20074;-66
2021/07/10 08:25:06;;;;;;;12.00;9.95;;;;;;;17.68;72.29;100067.78;4995204;28;20038;-66
2021/07/10 08:27:32;;;;;;;11.95;8.77;;;;;;;17.69;72.09;100069.50;4995346;28;20038;-66
2021/07/10 08:29:57;;;;;;;13.23;9.00;;;;;;;17.71;72.03;100073.00;4994169;28;20138;-66
2021/07/10 08:32:27;;;;;;;15.50;7.97;;;;;;;17.72;72.03;100077.34;4995498;28;20088;-67
2021/07/10 08:34:55;;;;;;;12.98;8.38;;;;;;;17.73;72.29;100073.84;4993792;28;20038;-66
2021/07/10 08:37:21;;;;;;;13.88;8.68;;;;;;;17.73;72.12;100065.09;4994261;28;20041;-66
2021/07/10 08:39:52;;;;;;;9.75;7.75;;;;;;;17.73;72.10;100059.84;4995668;28;20038;-67
2021/07/10 08:42:20;;;;;;;9.40;7.28;;;;;;;17.75;72.08;100058.06;4994207;28;20042;-66
2021/07/10 08:44:53;;;;;;;11.38;8.60;;;;;;;17.74;72.25;100057.22;4977601;28;20047;-66
2021/07/10 08:47:21;;;;;;;9.07;7.85;;;;;;;17.76;72.05;100051.94;4995155;28;20069;-66
2021/07/10 08:49:52;;;;;;;12.15;8.20;;;;;;;17.75;72.10;100045.81;4995661;28;20043;-66
2021/07/10 08:52:20;;;;;;;13.93;8.43;;;;;;;17.76;71.97;100047.56;4995501;28;20038;-66
2021/07/10 08:54:51;;;;;;;12.60;7.82;;;;;;;17.78;72.04;100050.19;4993803;28;20045;-66
2021/07/10 08:57:22;;;;;;;10.48;8.15;;;;;;;17.78;72.03;100053.66;4995008;28;20035;-66
2021/07/10 08:59:53;;;;;;;10.75;7.97;;;;;;;17.80;72.19;100045.78;4993993;28;20042;-66
2021/07/10 09:02:20;;;;;;;11.88;8.27;;;;;;;17.81;71.89;100048.38;4994815;28;20081;-66
2021/07/10 09:04:58;;;;;;;12.23;8.30;;;;;;;17.81;71.92;100045.75;4994140;28;20120;-66
2021/07/10 09:07:24;;;;;;;10.15;7.88;;;;;;;17.83;71.99;100042.25;4993416;28;20046;-66
2021/07/10 09:09:50;;;;;;;12.35;8.20;;;;;;;17.84;71.79;100042.22;4994671;28;20027;-66
2021/07/10 09:12:28;;;;;;;10.38;8.07;;;;;;;17.85;71.80;100037.84;4994587;28;20070;-65
2021/07/10 09:14:54;;;;;;;11.88;8.25;;;;;;;17.88;71.74;100037.81;4995235;28;20482;-67
2021/07/10 09:17:28;;;;;;;11.63;8.00;;;;;;;17.91;71.67;100036.00;4994889;28;20483;-66
2021/07/10 09:20:16;;;;;;;9.60;7.70;;;;;;;17.92;71.78;100029.88;4994751;28;20062;-66
2021/07/10 09:22:41;;;;;;;9.70;7.47;;;;;;;17.94;71.76;100025.47;4993159;28;20524;-66
2021/07/10 09:25:21;;;;;;;11.88;7.97;;;;;;;17.95;71.67;100028.97;4994002;28;20062;-65
2021/07/10 09:27:51;;;;;;;10.40;7.32;;;;;;;17.96;71.72;100015.84;4994158;28;20058;-66
2021/07/10 09:30:28;;;;;;;9.52;7.50;;;;;;;17.99;71.62;100019.31;4994764;28;20034;-65
2021/07/10 09:33:21;;;;;;;10.73;7.75;;;;;;;18.00;71.49;100016.69;4994158;28;20038;-65
2021/07/10 09:35:59;;;;;;;10.15;7.68;;;;;;;18.01;71.47;100009.66;4993778;28;20508;-66
2021/07/10 09:38:35;;;;;;;11.18;7.38;;;;;;;18.03;71.50;100013.13;4994221;28;20038;-66
2021/07/10 09:41:10;;;;;;;10.65;7.57;;;;;;;18.05;71.75;100014.88;4993350;28;20509;-65
2021/07/10 09:43:41;;;;;;;10.82;7.82;;;;;;;18.08;71.63;100003.47;4976696;28;20069;-65
2021/07/10 09:46:22;;;;;;;9.45;7.38;;;;;;;18.11;71.31;100006.88;4993753;28;20391;-66
2021/07/10 09:48:55;;;;;;;9.27;7.43;;;;;;;18.14;71.35;100005.13;4993178;28;20089;-66
2021/07/10 09:51:22;;;;;;;12.32;6.72;;;;;;;18.16;71.23;100005.97;4994254;28;20498;-66
2021/07/10 09:54:05;;;;;;;7.82;6.22;;;;;;;18.16;71.29;99996.31;4994208;28;20042;-66
2021/07/10 09:57:03;;;;;;;9.40;6.72;;;;;;;18.16;70.96;99993.69;4993942;28;20057;-67
2021/07/10 09:59:34;;;;;;;8.32;5.50;;;;;;;18.18;71.15;99996.31;4994350;28;20046;-67
2021/07/10 10:02:09;;;;;;;8.60;6.60;;;;;;;18.17;71.10;99987.56;4994007;28;20082;-67
2021/07/10 10:04:37;;;;;;;7.78;5.82;;;;;;;18.19;70.89;99985.78;4993099;28;20026;-67
2021/07/10 10:07:13;;;;;;;9.25;6.57;;;;;;;18.21;70.96;99983.16;4993966;28;20034;-67
2021/07/10 10:09:42;;;;;;;8.65;6.43;;;;;;;18.21;70.96;99984.00;4994254;28;20046;-67
2021/07/10 10:12:16;;;;;;;7.68;6.13;;;;;;;18.21;70.96;99978.75;4993789;28;20576;-67
2021/07/10 10:14:48;;;;;;;10.50;5.72;;;;;;;18.23;70.91;99974.38;4976451;28;20069;-67
2021/07/10 10:17:20;;;;;;;7.15;5.55;;;;;;;18.24;70.83;99975.22;4994035;28;20447;-67
2021/07/10 10:19:55;;;;;;;8.70;5.85;;;;;;;18.23;70.80;99974.38;4994229;28;20034;-67
2021/07/10 10:22:25;;;;;;;9.32;6.20;;;;;;;18.24;70.87;99970.84;4992802;28;20031;-67
2021/07/10 10:24:54;;;;;;;9.05;5.60;;;;;;;18.24;70.73;99970.84;4993075;28;20084;-67
2021/07/10 10:27:26;;;;;;;7.72;5.93;;;;;;;18.23;70.79;99966.50;4992677;28;20121;-67
2021/07/10 10:29:54;;;;;;;7.40;5.50;;;;;;;18.24;70.77;99965.59;4993664;28;20045;-67
2021/07/10 10:32:20;;;;;;;6.20;5.45;;;;;;;18.23;70.81;99950.75;4993040;28;20026;-67
2021/07/10 10:34:47;;;;;;;8.15;5.40;;;;;;;18.24;70.74;99955.13;4993970;28;20049;-67
2021/07/10 10:37:18;;;;;;;7.20;6.22;;;;;;;18.25;70.76;99953.34;4993608;28;20552;-67
2021/07/10 10:39:48;;;;;;;7.32;6.03;;;;;;;18.25;70.58;99962.09;4993700;28;20035;-67
2021/07/10 10:42:21;;;;;;;7.13;5.63;;;;;;;18.25;70.72;99953.34;4993871;28;20042;-67
2021/07/10 10:44:59;;;;;;;6.60;5.53;;;;;;;18.25;70.51;99955.97;4976380;28;20506;-68
2021/07/10 10:47:50;;;;;;;8.23;6.38;;;;;;;18.25;70.63;99962.09;4995400;28;20031;-68
2021/07/10 10:50:18;;;;;;;8.15;6.18;;;;;;;18.24;70.60;99942.00;4996204;28;20501;-68
2021/07/10 10:52:50;;;;;;;7.00;6.28;;;;;;;18.25;70.54;99942.84;4996957;28;20034;-67
2021/07/10 10:55:28;;;;;;;7.45;5.65;;;;;;;18.23;70.38;99939.38;4997267;28;20121;-68
2021/07/10 10:57:59;;;;;;;8.13;5.70;;;;;;;18.25;70.55;99942.84;4997581;28;20046;-67
2021/07/10 11:00:24;;;;;;;7.60;6.10;;;;;;;18.26;70.32;99944.59;4997408;28;20042;-68
2021/07/10 11:03:01;;;;;;;11.35;5.60;;;;;;;18.26;70.61;99926.22;4995669;28;20140;-67
2021/07/10 11:05:32;;;;;;;7.32;6.03;;;;;;;18.26;70.33;99926.22;4996920;28;20046;-67
2021/07/10 11:08:19;;;;;;;9.00;6.20;;;;;;;18.27;70.68;99920.09;4997022;28;20034;-67
2021/07/10 11:10:54;;;;;;;9.30;6.20;;;;;;;18.28;70.33;99919.19;4996950;28;20046;-67
2021/07/10 11:13:36;;;;;;;9.07;6.90;;;;;;;18.30;70.14;99921.78;4996911;28;20038;-67
2021/07/10 11:16:17;;;;;;;7.78;5.97;;;;;;;18.31;70.46;99926.13;4996946;28;20089;-67
2021/07/10 11:18:59;;;;;;;7.97;5.45;;;;;;;18.33;70.49;99921.72;4995907;28;20053;-66
2021/07/10 11:21:46;;;;;;;8.00;5.90;;;;;;;18.34;70.64;99916.47;4996945;28;20533;-66
2021/07/10 11:26:58;;;;;;;8.15;6.68;;;;;;;18.36;70.54;99906.81;4996672;28;20030;-66
2021/07/10 11:29:24;;;;;;;9.38;6.10;;;;;;;18.40;70.47;99913.72;4995752;28;20165;-66